Terminal Aerodrome Forecast
Issued by NWS

Home | Current Version | Previous Version | Text Only | Print | Product List | Glossary On
Versions: 1 2 3 4 5 6 7 8 9 10 11 12 13 14 15 16 17 18 19 20 21 22 23 24
000
FTUS46 KMTR 260000 AAA
TAFSFO
TAF AMD
KSFO 260010Z 2600/2706 23015KT P6SM SCT030 BKN050
      TEMPO 2600/2601 -RA
     FM260200 26010KT P6SM SCT030
     FM260600 27004KT P6SM FEW030
     FM262100 30016KT P6SM SKC
     FM270300 29010KT P6SM SKC=

USA.gov is the U.S. government's official web portal to all federal, state and local government web resources and services.